Aeroporto :







RITROVATECI SU...

 
LOGIN :

Iscrizione | Disclaimer

   EN    FR    IT 

 









Sommario :    VFR   VFR Marginale   IFR   IFR Intensivo   IFR Molto Intensivo
Visibilità : 
Base nubi : 
>= 8 km
>= 3000ft
5 / 8 km
1000 / 3000 ft
1500m / 5 km
500 / 1000 ft
800 / 1500m
200 / 500 ft
< 800m
< 200 ft
Simboli :   Temporali  Nebbia  Neve Forte  Precipitazioni Forti  Vento > 20 kt






- Altitudine del aeroporto : 40 ft
- Codice IATA : YRF


CYCA - Cartwright

ULTIMO METAR :
  • 120600Z AUTO 23018G27KT 9SM CLR M07/M11 A2998 RMK SLP156

METARs OBSOLETI :
  • 120500Z AUTO 23016G27KT 9SM CLR M07/M12 A2996 RMK SLP148
  • 120400Z AUTO 24016G28KT 9SM CLR M07/M12 A2996 RMK SLP147

TAF TAF CYCA
Valido dal 12 a 02 ore il 12 a 14 ore UTC


120138Z 1202/1214 25015G30KT P6SM SCT040
BECMG 1212/1214 25015KT RMK FCST BASED ON AUTO OBS. NXT FCST BY 120800Z



MetMap, La meteo Aeronautica in un colpo d'occhio ! - Copyright ORBIFLY Dicembre 2007 - Disclaimer

ORBIFLY MET'MAP TEAM :

Programmazione e sviluppo : Alexandra Zaïnal
Concezione e sviluppo : Baudouin d'Aumeries
Co-Programmazione e sviluppo : Marc-Olivier Méhu
Supporto tecnico e logistico : Manuel Goepfert
Aiuto per la traduzione : Arnaldo La Scala

Contatto : metmap@orbifly.com




FONTI E CREDITI :

   NOAA